sensor_id;sensor_type;location;lat;lon;timestamp;P1;durP1;ratioP1;P2;durP2;ratioP2
76477;SDS011;65309;49.790;18.972;2023-12-07T00:04:25;77.78;;;40.95;;
76477;SDS011;65309;49.790;18.972;2023-12-07T00:09:27;71.55;;;37.65;;
76477;SDS011;65309;49.790;18.972;2023-12-07T00:14:31;79.15;;;39.70;;
76477;SDS011;65309;49.790;18.972;2023-12-07T00:19:33;61.72;;;38.88;;
76477;SDS011;65309;49.790;18.972;2023-12-07T00:24:36;61.42;;;34.15;;
76477;SDS011;65309;49.790;18.972;2023-12-07T00:29:39;64.60;;;34.85;;
76477;SDS011;65309;49.790;18.972;2023-12-07T00:34:42;67.50;;;37.38;;
76477;SDS011;65309;49.790;18.972;2023-12-07T00:39:44;62.30;;;30.52;;
76477;SDS011;65309;49.790;18.972;2023-12-07T00:44:48;73.72;;;38.25;;
76477;SDS011;65309;49.790;18.972;2023-12-07T00:49:51;72.57;;;34.33;;
76477;SDS011;65309;49.790;18.972;2023-12-07T00:54:53;69.78;;;40.33;;
76477;SDS011;65309;49.790;18.972;2023-12-07T01:00:13;70.60;;;43.35;;
76477;SDS011;65309;49.790;18.972;2023-12-07T01:05:15;72.75;;;39.47;;
76477;SDS011;65309;49.790;18.972;2023-12-07T01:10:18;64.82;;;34.40;;
76477;SDS011;65309;49.790;18.972;2023-12-07T01:15:22;79.03;;;40.40;;
76477;SDS011;65309;49.790;18.972;2023-12-07T01:20:24;73.85;;;38.55;;
76477;SDS011;65309;49.790;18.972;2023-12-07T01:25:26;60.80;;;33.88;;
76477;SDS011;65309;49.790;18.972;2023-12-07T01:30:30;65.80;;;32.05;;
76477;SDS011;65309;49.790;18.972;2023-12-07T01:35:33;59.05;;;29.98;;
76477;SDS011;65309;49.790;18.972;2023-12-07T01:40:35;72.75;;;32.13;;
76477;SDS011;65309;49.790;18.972;2023-12-07T01:45:39;63.22;;;35.25;;
76477;SDS011;65309;49.790;18.972;2023-12-07T01:50:41;70.50;;;35.15;;
76477;SDS011;65309;49.790;18.972;2023-12-07T01:55:43;63.38;;;33.97;;
76477;SDS011;65309;49.790;18.972;2023-12-07T02:00:48;70.97;;;36.20;;
76477;SDS011;65309;49.790;18.972;2023-12-07T02:05:51;53.67;;;29.00;;
76477;SDS011;65309;49.790;18.972;2023-12-07T02:10:53;44.03;;;25.55;;
76477;SDS011;65309;49.790;18.972;2023-12-07T02:15:57;59.17;;;29.58;;
76477;SDS011;65309;49.790;18.972;2023-12-07T02:21:03;52.83;;;25.63;;
76477;SDS011;65309;49.790;18.972;2023-12-07T02:26:14;43.05;;;24.17;;
76477;SDS011;65309;49.790;18.972;2023-12-07T02:31:21;50.08;;;24.98;;
76477;SDS011;65309;49.790;18.972;2023-12-07T02:36:24;45.00;;;26.52;;
76477;SDS011;65309;49.790;18.972;2023-12-07T02:41:27;35.83;;;24.20;;
76477;SDS011;65309;49.790;18.972;2023-12-07T02:46:34;51.22;;;28.20;;
76477;SDS011;65309;49.790;18.972;2023-12-07T02:51:36;42.70;;;23.45;;
76477;SDS011;65309;49.790;18.972;2023-12-07T02:56:38;51.42;;;25.13;;
76477;SDS011;65309;49.790;18.972;2023-12-07T03:01:42;50.13;;;22.08;;
76477;SDS011;65309;49.790;18.972;2023-12-07T03:06:45;50.75;;;24.77;;
76477;SDS011;65309;49.790;18.972;2023-12-07T03:11:47;31.85;;;17.15;;
76477;SDS011;65309;49.790;18.972;2023-12-07T03:16:51;49.50;;;24.73;;
76477;SDS011;65309;49.790;18.972;2023-12-07T03:21:53;40.33;;;20.08;;
76477;SDS011;65309;49.790;18.972;2023-12-07T03:26:56;39.53;;;19.63;;
76477;SDS011;65309;49.790;18.972;2023-12-07T03:31:59;29.02;;;17.15;;
76477;SDS011;65309;49.790;18.972;2023-12-07T03:37:02;61.40;;;29.63;;
76477;SDS011;65309;49.790;18.972;2023-12-07T03:42:05;68.43;;;30.08;;
76477;SDS011;65309;49.790;18.972;2023-12-07T03:47:29;42.45;;;24.60;;
76477;SDS011;65309;49.790;18.972;2023-12-07T03:52:31;46.97;;;21.90;;
76477;SDS011;65309;49.790;18.972;2023-12-07T03:57:33;61.42;;;32.45;;
76477;SDS011;65309;49.790;18.972;2023-12-07T04:02:37;43.05;;;26.60;;
76477;SDS011;65309;49.790;18.972;2023-12-07T04:07:39;48.63;;;24.33;;
76477;SDS011;65309;49.790;18.972;2023-12-07T04:12:42;40.40;;;22.23;;
76477;SDS011;65309;49.790;18.972;2023-12-07T04:17:45;50.13;;;25.77;;
76477;SDS011;65309;49.790;18.972;2023-12-07T04:22:48;38.33;;;21.80;;
76477;SDS011;65309;49.790;18.972;2023-12-07T04:27:50;39.10;;;21.08;;
76477;SDS011;65309;49.790;18.972;2023-12-07T04:32:54;43.50;;;24.08;;
76477;SDS011;65309;49.790;18.972;2023-12-07T04:37:56;41.65;;;24.20;;
76477;SDS011;65309;49.790;18.972;2023-12-07T04:42:59;51.90;;;25.77;;
76477;SDS011;65309;49.790;18.972;2023-12-07T04:48:03;47.67;;;24.08;;
76477;SDS011;65309;49.790;18.972;2023-12-07T04:53:06;41.60;;;26.00;;
76477;SDS011;65309;49.790;18.972;2023-12-07T04:58:09;37.88;;;19.27;;
76477;SDS011;65309;49.790;18.972;2023-12-07T05:03:12;44.63;;;21.85;;
76477;SDS011;65309;49.790;18.972;2023-12-07T05:08:15;63.28;;;30.48;;
76477;SDS011;65309;49.790;18.972;2023-12-07T05:13:17;31.30;;;19.75;;
76477;SDS011;65309;49.790;18.972;2023-12-07T05:18:21;34.15;;;19.45;;
76477;SDS011;65309;49.790;18.972;2023-12-07T05:23:23;42.97;;;22.80;;
76477;SDS011;65309;49.790;18.972;2023-12-07T05:28:25;59.20;;;22.23;;
76477;SDS011;65309;49.790;18.972;2023-12-07T05:33:29;42.58;;;23.92;;
76477;SDS011;65309;49.790;18.972;2023-12-07T05:38:31;39.42;;;22.77;;
76477;SDS011;65309;49.790;18.972;2023-12-07T05:43:34;38.63;;;23.45;;
76477;SDS011;65309;49.790;18.972;2023-12-07T05:48:37;54.10;;;27.33;;
76477;SDS011;65309;49.790;18.972;2023-12-07T05:58:42;40.50;;;24.48;;
76477;SDS011;65309;49.790;18.972;2023-12-07T06:03:46;66.90;;;33.35;;
76477;SDS011;65309;49.790;18.972;2023-12-07T06:08:48;42.28;;;21.58;;
76477;SDS011;65309;49.790;18.972;2023-12-07T06:13:51;37.15;;;19.80;;
76477;SDS011;65309;49.790;18.972;2023-12-07T06:18:54;55.47;;;25.00;;
76477;SDS011;65309;49.790;18.972;2023-12-07T06:23:57;49.08;;;25.42;;
76477;SDS011;65309;49.790;18.972;2023-12-07T06:29:00;55.20;;;26.88;;
76477;SDS011;65309;49.790;18.972;2023-12-07T06:34:04;80.70;;;36.47;;
76477;SDS011;65309;49.790;18.972;2023-12-07T06:39:07;84.68;;;41.53;;
76477;SDS011;65309;49.790;18.972;2023-12-07T06:44:09;73.13;;;35.63;;
76477;SDS011;65309;49.790;18.972;2023-12-07T06:49:13;65.13;;;28.90;;
76477;SDS011;65309;49.790;18.972;2023-12-07T06:54:15;59.65;;;29.85;;
76477;SDS011;65309;49.790;18.972;2023-12-07T06:59:17;74.63;;;34.85;;
76477;SDS011;65309;49.790;18.972;2023-12-07T07:04:21;53.05;;;24.30;;
76477;SDS011;65309;49.790;18.972;2023-12-07T07:09:23;58.78;;;31.10;;
76477;SDS011;65309;49.790;18.972;2023-12-07T07:14:27;78.03;;;31.48;;
76477;SDS011;65309;49.790;18.972;2023-12-07T07:19:30;63.42;;;29.80;;
76477;SDS011;65309;49.790;18.972;2023-12-07T07:24:33;57.35;;;28.65;;
76477;SDS011;65309;49.790;18.972;2023-12-07T07:29:35;51.50;;;23.88;;
76477;SDS011;65309;49.790;18.972;2023-12-07T07:34:39;49.25;;;25.55;;
76477;SDS011;65309;49.790;18.972;2023-12-07T07:39:42;59.55;;;28.55;;
76477;SDS011;65309;49.790;18.972;2023-12-07T07:44:44;53.53;;;27.42;;
76477;SDS011;65309;49.790;18.972;2023-12-07T07:49:47;47.38;;;26.92;;
76477;SDS011;65309;49.790;18.972;2023-12-07T07:54:51;47.50;;;25.00;;
76477;SDS011;65309;49.790;18.972;2023-12-07T07:59:53;67.18;;;31.98;;
76477;SDS011;65309;49.790;18.972;2023-12-07T08:04:57;53.10;;;25.00;;
76477;SDS011;65309;49.790;18.972;2023-12-07T08:09:59;52.15;;;27.95;;
76477;SDS011;65309;49.790;18.972;2023-12-07T08:15:01;54.92;;;25.55;;
76477;SDS011;65309;49.790;18.972;2023-12-07T08:20:06;38.63;;;21.55;;
76477;SDS011;65309;49.790;18.972;2023-12-07T08:25:11;44.30;;;22.98;;
76477;SDS011;65309;49.790;18.972;2023-12-07T08:30:13;69.60;;;30.30;;
76477;SDS011;65309;49.790;18.972;2023-12-07T08:35:17;63.10;;;30.58;;
76477;SDS011;65309;49.790;18.972;2023-12-07T08:40:19;51.55;;;26.05;;
76477;SDS011;65309;49.790;18.972;2023-12-07T08:45:22;56.75;;;28.67;;
76477;SDS011;65309;49.790;18.972;2023-12-07T08:50:27;54.13;;;27.90;;
76477;SDS011;65309;49.790;18.972;2023-12-07T08:55:29;57.45;;;26.83;;
76477;SDS011;65309;49.790;18.972;2023-12-07T09:00:32;52.65;;;28.17;;
76477;SDS011;65309;49.790;18.972;2023-12-07T09:05:36;60.97;;;31.40;;
76477;SDS011;65309;49.790;18.972;2023-12-07T09:10:38;64.70;;;37.25;;
76477;SDS011;65309;49.790;18.972;2023-12-07T09:15:41;51.28;;;26.95;;
76477;SDS011;65309;49.790;18.972;2023-12-07T09:20:45;37.08;;;21.23;;
76477;SDS011;65309;49.790;18.972;2023-12-07T09:25:48;36.90;;;21.20;;
76477;SDS011;65309;49.790;18.972;2023-12-07T09:30:50;61.45;;;26.02;;
76477;SDS011;65309;49.790;18.972;2023-12-07T09:35:54;66.05;;;34.95;;
76477;SDS011;65309;49.790;18.972;2023-12-07T09:40:57;71.28;;;35.13;;
76477;SDS011;65309;49.790;18.972;2023-12-07T09:45:59;66.72;;;29.58;;
76477;SDS011;65309;49.790;18.972;2023-12-07T09:51:04;53.08;;;28.85;;
76477;SDS011;65309;49.790;18.972;2023-12-07T09:56:08;35.83;;;18.70;;
76477;SDS011;65309;49.790;18.972;2023-12-07T10:01:11;54.13;;;27.90;;
76477;SDS011;65309;49.790;18.972;2023-12-07T10:06:18;66.43;;;32.33;;
76477;SDS011;65309;49.790;18.972;2023-12-07T10:11:20;44.85;;;21.85;;
76477;SDS011;65309;49.790;18.972;2023-12-07T10:16:23;42.05;;;20.13;;
76477;SDS011;65309;49.790;18.972;2023-12-07T10:21:32;35.35;;;18.23;;
76477;SDS011;65309;49.790;18.972;2023-12-07T10:26:35;51.80;;;23.58;;
76477;SDS011;65309;49.790;18.972;2023-12-07T10:31:39;49.05;;;22.60;;
76477;SDS011;65309;49.790;18.972;2023-12-07T10:36:43;63.35;;;28.92;;
76477;SDS011;65309;49.790;18.972;2023-12-07T10:41:47;57.38;;;27.60;;
76477;SDS011;65309;49.790;18.972;2023-12-07T10:46:54;43.78;;;21.67;;
76477;SDS011;65309;49.790;18.972;2023-12-07T10:51:59;40.17;;;19.83;;
76477;SDS011;65309;49.790;18.972;2023-12-07T10:57:03;52.53;;;26.33;;
76477;SDS011;65309;49.790;18.972;2023-12-07T11:02:08;41.63;;;20.50;;
76477;SDS011;65309;49.790;18.972;2023-12-07T11:07:16;66.13;;;31.40;;
76477;SDS011;65309;49.790;18.972;2023-12-07T11:12:24;59.85;;;25.10;;
76477;SDS011;65309;49.790;18.972;2023-12-07T11:17:47;73.50;;;28.75;;
76477;SDS011;65309;49.790;18.972;2023-12-07T11:22:54;45.03;;;22.15;;
76477;SDS011;65309;49.790;18.972;2023-12-07T11:28:00;60.13;;;27.05;;
76477;SDS011;65309;49.790;18.972;2023-12-07T11:33:03;60.20;;;27.50;;
76477;SDS011;65309;49.790;18.972;2023-12-07T11:38:10;71.93;;;32.22;;
76477;SDS011;65309;49.790;18.972;2023-12-07T11:43:18;61.05;;;29.05;;
76477;SDS011;65309;49.790;18.972;2023-12-07T11:48:32;48.95;;;30.15;;
76477;SDS011;65309;49.790;18.972;2023-12-07T11:53:36;53.97;;;25.98;;
76477;SDS011;65309;49.790;18.972;2023-12-07T11:58:39;45.78;;;25.30;;
76477;SDS011;65309;49.790;18.972;2023-12-07T12:03:42;49.97;;;26.85;;
76477;SDS011;65309;49.790;18.972;2023-12-07T12:08:46;50.92;;;22.75;;
76477;SDS011;65309;49.790;18.972;2023-12-07T12:13:50;44.75;;;21.50;;
76477;SDS011;65309;49.790;18.972;2023-12-07T12:18:52;44.55;;;21.85;;
76477;SDS011;65309;49.790;18.972;2023-12-07T12:23:57;54.15;;;26.40;;
76477;SDS011;65309;49.790;18.972;2023-12-07T12:29:00;58.40;;;27.95;;
76477;SDS011;65309;49.790;18.972;2023-12-07T12:34:02;51.10;;;23.13;;
76477;SDS011;65309;49.790;18.972;2023-12-07T12:39:14;42.47;;;23.42;;
76477;SDS011;65309;49.790;18.972;2023-12-07T12:44:30;48.03;;;24.55;;
76477;SDS011;65309;49.790;18.972;2023-12-07T12:49:39;53.00;;;25.27;;
76477;SDS011;65309;49.790;18.972;2023-12-07T12:54:44;59.38;;;27.33;;
76477;SDS011;65309;49.790;18.972;2023-12-07T13:09:54;42.83;;;22.48;;
76477;SDS011;65309;49.790;18.972;2023-12-07T13:14:58;55.05;;;29.30;;
76477;SDS011;65309;49.790;18.972;2023-12-07T13:20:02;59.80;;;27.88;;
76477;SDS011;65309;49.790;18.972;2023-12-07T13:25:11;67.45;;;33.22;;
76477;SDS011;65309;49.790;18.972;2023-12-07T13:30:16;55.92;;;28.25;;
76477;SDS011;65309;49.790;18.972;2023-12-07T13:35:18;63.65;;;30.95;;
76477;SDS011;65309;49.790;18.972;2023-12-07T13:40:23;51.22;;;26.70;;
76477;SDS011;65309;49.790;18.972;2023-12-07T13:45:26;65.07;;;30.50;;
76477;SDS011;65309;49.790;18.972;2023-12-07T13:50:30;54.33;;;26.45;;
76477;SDS011;65309;49.790;18.972;2023-12-07T13:55:34;61.05;;;30.67;;
76477;SDS011;65309;49.790;18.972;2023-12-07T14:00:38;47.78;;;25.60;;
76477;SDS011;65309;49.790;18.972;2023-12-07T14:05:40;72.32;;;34.15;;
76477;SDS011;65309;49.790;18.972;2023-12-07T14:10:45;66.90;;;33.58;;
76477;SDS011;65309;49.790;18.972;2023-12-07T14:15:47;63.78;;;34.50;;
76477;SDS011;65309;49.790;18.972;2023-12-07T14:20:50;73.40;;;34.75;;
76477;SDS011;65309;49.790;18.972;2023-12-07T14:26:14;62.85;;;30.75;;
76477;SDS011;65309;49.790;18.972;2023-12-07T14:31:16;62.00;;;30.08;;
76477;SDS011;65309;49.790;18.972;2023-12-07T14:41:23;54.13;;;25.80;;
76477;SDS011;65309;49.790;18.972;2023-12-07T14:46:26;66.10;;;30.02;;
76477;SDS011;65309;49.790;18.972;2023-12-07T14:51:29;76.80;;;33.63;;
76477;SDS011;65309;49.790;18.972;2023-12-07T14:56:32;55.67;;;29.35;;
76477;SDS011;65309;49.790;18.972;2023-12-07T15:01:35;54.60;;;27.48;;
76477;SDS011;65309;49.790;18.972;2023-12-07T15:06:37;53.10;;;26.85;;
76477;SDS011;65309;49.790;18.972;2023-12-07T15:11:45;38.58;;;18.90;;
76477;SDS011;65309;49.790;18.972;2023-12-07T15:16:48;63.13;;;32.35;;
76477;SDS011;65309;49.790;18.972;2023-12-07T15:21:50;37.88;;;20.00;;
76477;SDS011;65309;49.790;18.972;2023-12-07T15:26:54;38.13;;;23.58;;
76477;SDS011;65309;49.790;18.972;2023-12-07T15:31:56;49.95;;;23.77;;
76477;SDS011;65309;49.790;18.972;2023-12-07T15:36:59;40.17;;;18.30;;
76477;SDS011;65309;49.790;18.972;2023-12-07T15:42:03;40.83;;;20.05;;
76477;SDS011;65309;49.790;18.972;2023-12-07T15:47:05;39.20;;;20.10;;
76477;SDS011;65309;49.790;18.972;2023-12-07T15:52:10;37.05;;;21.77;;
76477;SDS011;65309;49.790;18.972;2023-12-07T15:57:14;42.35;;;22.17;;
76477;SDS011;65309;49.790;18.972;2023-12-07T16:02:16;43.60;;;25.00;;
76477;SDS011;65309;49.790;18.972;2023-12-07T16:07:20;38.38;;;22.17;;
76477;SDS011;65309;49.790;18.972;2023-12-07T16:12:24;47.25;;;22.08;;
76477;SDS011;65309;49.790;18.972;2023-12-07T16:17:26;57.03;;;24.95;;
76477;SDS011;65309;49.790;18.972;2023-12-07T16:22:30;49.30;;;23.52;;
76477;SDS011;65309;49.790;18.972;2023-12-07T16:27:33;29.70;;;19.40;;
76477;SDS011;65309;49.790;18.972;2023-12-07T16:32:36;32.45;;;19.20;;
76477;SDS011;65309;49.790;18.972;2023-12-07T16:37:38;30.70;;;16.65;;
76477;SDS011;65309;49.790;18.972;2023-12-07T16:42:42;30.58;;;16.40;;
76477;SDS011;65309;49.790;18.972;2023-12-07T16:47:45;45.38;;;20.67;;
76477;SDS011;65309;49.790;18.972;2023-12-07T16:52:49;36.55;;;18.40;;
76477;SDS011;65309;49.790;18.972;2023-12-07T16:58:00;37.40;;;21.90;;
76477;SDS011;65309;49.790;18.972;2023-12-07T17:03:02;51.17;;;24.90;;
76477;SDS011;65309;49.790;18.972;2023-12-07T17:08:05;39.10;;;22.20;;
76477;SDS011;65309;49.790;18.972;2023-12-07T17:13:09;36.20;;;21.25;;
76477;SDS011;65309;49.790;18.972;2023-12-07T17:18:13;39.40;;;20.33;;
76477;SDS011;65309;49.790;18.972;2023-12-07T17:23:16;61.88;;;33.53;;
76477;SDS011;65309;49.790;18.972;2023-12-07T17:28:19;63.17;;;34.15;;
76477;SDS011;65309;49.790;18.972;2023-12-07T17:33:22;76.07;;;33.03;;
76477;SDS011;65309;49.790;18.972;2023-12-07T17:38:25;44.25;;;24.67;;
76477;SDS011;65309;49.790;18.972;2023-12-07T17:43:28;46.72;;;25.20;;
76477;SDS011;65309;49.790;18.972;2023-12-07T17:48:31;49.65;;;21.92;;
76477;SDS011;65309;49.790;18.972;2023-12-07T17:53:33;47.78;;;20.60;;
76477;SDS011;65309;49.790;18.972;2023-12-07T17:58:37;63.17;;;24.60;;
76477;SDS011;65309;49.790;18.972;2023-12-07T18:08:41;49.58;;;23.15;;
76477;SDS011;65309;49.790;18.972;2023-12-07T18:13:45;44.72;;;23.25;;
76477;SDS011;65309;49.790;18.972;2023-12-07T18:18:48;43.67;;;24.30;;
76477;SDS011;65309;49.790;18.972;2023-12-07T18:23:51;60.90;;;28.17;;
76477;SDS011;65309;49.790;18.972;2023-12-07T18:28:54;73.90;;;37.17;;
76477;SDS011;65309;49.790;18.972;2023-12-07T18:33:57;98.90;;;45.92;;
76477;SDS011;65309;49.790;18.972;2023-12-07T18:38:59;81.57;;;39.85;;
76477;SDS011;65309;49.790;18.972;2023-12-07T18:44:03;67.40;;;38.88;;
76477;SDS011;65309;49.790;18.972;2023-12-07T18:49:05;71.30;;;42.78;;
76477;SDS011;65309;49.790;18.972;2023-12-07T18:54:08;88.25;;;49.35;;
76477;SDS011;65309;49.790;18.972;2023-12-07T18:59:12;87.20;;;42.42;;
76477;SDS011;65309;49.790;18.972;2023-12-07T19:04:14;72.85;;;40.40;;
76477;SDS011;65309;49.790;18.972;2023-12-07T19:09:17;66.68;;;36.92;;
76477;SDS011;65309;49.790;18.972;2023-12-07T19:14:23;76.60;;;35.95;;
76477;SDS011;65309;49.790;18.972;2023-12-07T19:19:26;51.80;;;29.10;;
76477;SDS011;65309;49.790;18.972;2023-12-07T19:24:28;55.95;;;30.45;;
76477;SDS011;65309;49.790;18.972;2023-12-07T19:29:33;44.95;;;24.60;;
76477;SDS011;65309;49.790;18.972;2023-12-07T19:34:36;52.53;;;29.70;;
76477;SDS011;65309;49.790;18.972;2023-12-07T19:39:38;49.75;;;27.75;;
76477;SDS011;65309;49.790;18.972;2023-12-07T19:44:42;52.95;;;27.90;;
76477;SDS011;65309;49.790;18.972;2023-12-07T19:49:45;41.58;;;24.38;;
76477;SDS011;65309;49.790;18.972;2023-12-07T19:54:48;49.70;;;25.70;;
76477;SDS011;65309;49.790;18.972;2023-12-07T19:59:51;40.88;;;22.48;;
76477;SDS011;65309;49.790;18.972;2023-12-07T20:04:54;40.42;;;21.15;;
76477;SDS011;65309;49.790;18.972;2023-12-07T20:09:57;42.45;;;22.33;;
76477;SDS011;65309;49.790;18.972;2023-12-07T20:15:00;43.10;;;21.58;;
76477;SDS011;65309;49.790;18.972;2023-12-07T20:20:05;41.92;;;21.48;;
76477;SDS011;65309;49.790;18.972;2023-12-07T20:25:08;41.38;;;20.23;;
76477;SDS011;65309;49.790;18.972;2023-12-07T20:30:12;35.83;;;21.05;;
76477;SDS011;65309;49.790;18.972;2023-12-07T20:40:17;26.30;;;16.90;;
76477;SDS011;65309;49.790;18.972;2023-12-07T20:45:21;32.83;;;18.65;;
76477;SDS011;65309;49.790;18.972;2023-12-07T20:50:23;29.88;;;18.25;;
76477;SDS011;65309;49.790;18.972;2023-12-07T20:55:26;29.85;;;17.02;;
76477;SDS011;65309;49.790;18.972;2023-12-07T21:05:33;22.27;;;12.70;;
76477;SDS011;65309;49.790;18.972;2023-12-07T21:10:36;25.08;;;14.90;;
76477;SDS011;65309;49.790;18.972;2023-12-07T21:15:40;29.85;;;14.68;;
76477;SDS011;65309;49.790;18.972;2023-12-07T21:20:42;28.77;;;15.10;;
76477;SDS011;65309;49.790;18.972;2023-12-07T21:25:45;34.10;;;15.85;;
76477;SDS011;65309;49.790;18.972;2023-12-07T21:30:49;21.50;;;14.52;;
76477;SDS011;65309;49.790;18.972;2023-12-07T21:35:52;30.65;;;16.88;;
76477;SDS011;65309;49.790;18.972;2023-12-07T21:40:54;29.63;;;13.25;;
76477;SDS011;65309;49.790;18.972;2023-12-07T21:45:58;19.67;;;12.70;;
76477;SDS011;65309;49.790;18.972;2023-12-07T21:51:00;21.60;;;14.23;;
76477;SDS011;65309;49.790;18.972;2023-12-07T21:56:07;25.80;;;13.43;;
76477;SDS011;65309;49.790;18.972;2023-12-07T22:01:15;29.30;;;15.48;;
76477;SDS011;65309;49.790;18.972;2023-12-07T22:06:24;19.73;;;11.38;;
76477;SDS011;65309;49.790;18.972;2023-12-07T22:11:28;20.88;;;11.98;;
76477;SDS011;65309;49.790;18.972;2023-12-07T22:16:31;20.58;;;12.80;;
76477;SDS011;65309;49.790;18.972;2023-12-07T22:21:34;19.20;;;9.95;;
76477;SDS011;65309;49.790;18.972;2023-12-07T22:26:36;15.43;;;9.30;;
76477;SDS011;65309;49.790;18.972;2023-12-07T22:31:40;19.00;;;12.55;;
76477;SDS011;65309;49.790;18.972;2023-12-07T22:36:46;22.45;;;13.82;;
76477;SDS011;65309;49.790;18.972;2023-12-07T22:41:48;24.30;;;12.68;;
76477;SDS011;65309;49.790;18.972;2023-12-07T22:46:52;25.95;;;12.32;;
76477;SDS011;65309;49.790;18.972;2023-12-07T22:51:54;23.83;;;11.70;;
76477;SDS011;65309;49.790;18.972;2023-12-07T22:56:57;22.08;;;10.88;;
76477;SDS011;65309;49.790;18.972;2023-12-07T23:02:01;18.73;;;10.98;;
76477;SDS011;65309;49.790;18.972;2023-12-07T23:07:03;17.48;;;10.25;;
76477;SDS011;65309;49.790;18.972;2023-12-07T23:12:05;21.88;;;12.35;;
76477;SDS011;65309;49.790;18.972;2023-12-07T23:17:09;25.83;;;13.75;;
76477;SDS011;65309;49.790;18.972;2023-12-07T23:22:12;31.65;;;15.18;;
76477;SDS011;65309;49.790;18.972;2023-12-07T23:27:14;15.50;;;8.75;;
76477;SDS011;65309;49.790;18.972;2023-12-07T23:32:17;22.02;;;12.52;;
76477;SDS011;65309;49.790;18.972;2023-12-07T23:37:20;27.83;;;14.93;;
76477;SDS011;65309;49.790;18.972;2023-12-07T23:42:22;25.13;;;12.13;;
76477;SDS011;65309;49.790;18.972;2023-12-07T23:47:26;27.27;;;14.07;;
76477;SDS011;65309;49.790;18.972;2023-12-07T23:52:28;23.05;;;12.57;;
76477;SDS011;65309;49.790;18.972;2023-12-07T23:57:31;22.80;;;12.90;;
